Time;durP1;ratioP1;P1;durP2;ratioP2;P2;SDS_P1;SDS_P2;PMS_P1;PMS_P2;Temp;Humidity;BMP_temperature;BMP_pressure;BME280_temperature;BME280_humidity;BME280_pressure;Samples;Min_cycle;Max_cycle;Signal;HPM_P1;HPM_P2
2022/05/11 00:01:32;;;;;;;8.73;7.90;;;16.10;99.90;;;;;;5082373;28;20259;-79
2022/05/11 00:04:00;;;;;;;9.07;8.27;;;16.00;99.90;;;;;;5085591;28;20229;-78
2022/05/11 00:06:28;;;;;;;9.67;8.87;;;16.00;99.90;;;;;;5080219;28;20693;-78
2022/05/11 00:08:58;;;;;;;8.00;7.30;;;16.00;99.90;;;;;;5080085;28;20641;-79
2022/05/11 00:11:27;;;;;;;8.27;7.50;;;15.90;99.90;;;;;;5082513;28;20677;-78
2022/05/11 00:13:55;;;;;;;9.40;8.60;;;15.90;99.90;;;;;;5086032;28;20291;-78
2022/05/11 00:16:22;;;;;;;9.07;8.37;;;15.80;99.90;;;;;;5074210;28;20210;-79
2022/05/11 00:18:50;;;;;;;9.50;8.70;;;15.70;99.90;;;;;;5087351;28;20911;-78
2022/05/11 00:21:17;;;;;;;10.53;9.67;;;15.60;99.90;;;;;;5081947;28;20695;-78
2022/05/11 00:23:44;;;;;;;7.07;6.37;;;15.60;99.90;;;;;;5082250;28;20202;-77
2022/05/11 00:26:12;;;;;;;8.37;7.43;;;15.60;99.90;;;;;;5088432;28;20632;-77
2022/05/11 00:28:39;;;;;;;10.20;9.30;;;15.50;99.90;;;;;;5078708;28;20275;-78
2022/05/11 00:31:06;;;;;;;10.13;9.33;;;15.50;99.90;;;;;;5088417;28;20207;-78
2022/05/11 00:33:33;;;;;;;9.93;9.00;;;15.40;99.90;;;;;;5078759;28;20199;-79
2022/05/11 00:36:00;;;;;;;10.27;9.33;;;15.40;99.90;;;;;;5088691;28;20220;-76
2022/05/11 00:38:28;;;;;;;10.33;9.40;;;15.40;99.90;;;;;;5080331;28;20236;-76
2022/05/11 00:40:57;;;;;;;9.90;9.00;;;15.40;99.90;;;;;;5081614;28;20195;-79
2022/05/11 00:43:31;;;;;;;9.90;9.10;;;15.30;99.90;;;;;;5088269;28;20222;-78
2022/05/11 00:46:12;;;;;;;10.37;9.50;;;15.30;99.90;;;;;;5082019;28;20228;-77
2022/05/11 00:51:28;;;;;;;10.30;9.40;;;15.20;99.90;;;;;;5081863;28;20194;-79
2022/05/11 00:53:56;;;;;;;10.10;9.20;;;15.20;99.90;;;;;;5086781;28;20258;-78
2022/05/11 00:56:24;;;;;;;10.57;9.67;;;15.10;99.90;;;;;;5083488;28;20206;-78
2022/05/11 00:58:57;;;;;;;10.13;9.30;;;15.10;99.90;;;;;;5077278;28;20209;-78
2022/05/11 01:01:25;;;;;;;10.80;9.83;;;15.10;99.90;;;;;;5083095;28;20198;-78
2022/05/11 01:03:55;;;;;;;10.30;9.40;;;15.00;99.90;;;;;;5078071;28;20316;-78
2022/05/11 01:06:23;;;;;;;9.83;9.00;;;15.00;99.90;;;;;;5079069;28;20196;-77
2022/05/11 01:08:50;;;;;;;9.97;9.17;;;14.90;99.90;;;;;;5079509;28;20680;-78
2022/05/11 01:11:18;;;;;;;10.17;9.37;;;14.90;99.90;;;;;;5082145;28;20396;-78
2022/05/11 01:13:47;;;;;;;9.60;8.80;;;14.90;99.90;;;;;;5076026;28;20195;-77
2022/05/11 01:16:15;;;;;;;10.33;9.43;;;14.80;99.90;;;;;;5084115;28;20207;-79
2022/05/11 01:18:44;;;;;;;10.27;9.37;;;14.80;99.90;;;;;;5079129;28;20210;-79
2022/05/11 01:21:11;;;;;;;9.50;8.70;;;14.80;99.90;;;;;;5069854;28;20204;-78
2022/05/11 01:23:45;;;;;;;9.67;8.83;;;14.70;99.90;;;;;;5072858;28;20205;-78
2022/05/11 01:26:16;;;;;;;9.40;8.60;;;14.70;99.90;;;;;;5078321;28;20204;-78
2022/05/11 01:28:45;;;;;;;9.20;8.40;;;14.70;99.90;;;;;;5075185;28;20244;-78
2022/05/11 01:31:14;;;;;;;9.43;8.67;;;14.60;99.90;;;;;;5080809;28;20205;-78
2022/05/11 01:33:46;;;;;;;10.27;9.27;;;14.60;99.90;;;;;;5084545;28;20199;-77
2022/05/11 01:36:20;;;;;;;9.70;8.80;;;14.60;99.90;;;;;;5071158;28;20203;-78
2022/05/11 01:38:49;;;;;;;9.80;8.90;;;14.50;99.90;;;;;;5081097;28;20196;-78
2022/05/11 01:41:22;;;;;;;9.77;8.87;;;14.50;99.90;;;;;;5081546;28;20671;-79
2022/05/11 01:43:50;;;;;;;9.70;8.83;;;14.40;99.90;;;;;;5083391;28;20198;-78
2022/05/11 01:46:18;;;;;;;10.17;9.37;;;14.40;99.90;;;;;;5081671;28;20201;-78
2022/05/11 01:48:45;;;;;;;10.43;8.93;;;14.40;99.90;;;;;;5077726;28;20202;-77
2022/05/11 01:51:12;;;;;;;9.17;8.37;;;14.40;99.90;;;;;;5083528;28;20656;-77
2022/05/11 01:53:39;;;;;;;9.00;8.20;;;14.30;99.90;;;;;;5078381;28;20666;-78
2022/05/11 01:56:07;;;;;;;9.60;8.80;;;14.30;99.90;;;;;;5078918;28;20533;-78
2022/05/11 01:58:36;;;;;;;8.93;8.23;;;14.30;99.90;;;;;;5081500;28;20199;-78
2022/05/11 02:01:04;;;;;;;8.90;8.10;;;14.20;99.90;;;;;;5080341;28;20224;-78
2022/05/11 02:03:30;;;;;;;9.43;8.63;;;14.20;99.90;;;;;;5081026;28;20318;-78
2022/05/11 02:08:44;;;;;;;9.50;8.70;;;14.10;99.90;;;;;;5077009;28;20205;-78
2022/05/11 02:11:13;;;;;;;9.37;8.67;;;14.10;99.90;;;;;;5083333;28;20204;-79
2022/05/11 02:13:41;;;;;;;9.17;8.37;;;14.00;99.90;;;;;;5078129;28;20194;-78
2022/05/11 02:16:08;;;;;;;10.03;9.13;;;13.90;99.90;;;;;;5076736;28;20580;-77
2022/05/11 02:18:35;;;;;;;9.07;8.27;;;13.90;99.90;;;;;;5080401;28;20199;-76
2022/05/11 02:21:02;;;;;;;9.60;8.80;;;13.90;99.90;;;;;;5079827;28;20637;-77
2022/05/11 02:23:29;;;;;;;9.43;8.63;;;13.80;99.90;;;;;;5082395;28;20207;-78
2022/05/11 02:25:57;;;;;;;9.93;9.13;;;13.80;99.90;;;;;;5083837;28;20217;-78
2022/05/11 02:28:24;;;;;;;9.60;8.80;;;13.80;99.90;;;;;;5076893;28;20201;-77
2022/05/11 02:30:54;;;;;;;9.63;8.77;;;13.80;99.90;;;;;;5084063;28;20206;-79
2022/05/11 02:33:22;;;;;;;10.13;9.20;;;13.80;99.90;;;;;;5076370;28;20205;-77
2022/05/11 02:35:50;;;;;;;10.70;9.80;;;13.80;99.90;;;;;;5081679;28;20758;-77
2022/05/11 02:38:19;;;;;;;9.73;9.03;;;13.80;99.90;;;;;;5073604;28;20217;-77
2022/05/11 02:40:47;;;;;;;10.60;9.60;;;13.70;99.90;;;;;;5081313;28;20234;-78
2022/05/11 02:43:15;;;;;;;10.40;9.60;;;13.70;99.90;;;;;;5097401;28;20252;-79
2022/05/11 02:45:46;;;;;;;9.33;8.43;;;13.70;99.90;;;;;;5078015;28;20272;-80
2022/05/11 02:48:17;;;;;;;10.60;9.70;;;13.60;99.90;;;;;;5074555;28;20210;-79
2022/05/11 02:50:47;;;;;;;9.70;8.90;;;13.50;99.90;;;;;;5070992;28;20223;-79
2022/05/11 02:53:15;;;;;;;9.60;8.80;;;13.50;99.90;;;;;;5071425;28;20218;-78
2022/05/11 02:55:44;;;;;;;10.13;9.33;;;13.50;99.90;;;;;;5078077;28;20334;-79
2022/05/11 02:58:13;;;;;;;10.23;9.40;;;13.50;99.90;;;;;;5069562;28;20202;-79
2022/05/11 03:00:44;;;;;;;11.40;10.30;;;13.40;99.90;;;;;;5075825;28;20230;-79
2022/05/11 03:03:12;;;;;;;11.10;10.30;;;13.40;99.90;;;;;;5072318;28;20212;-77
2022/05/11 03:05:41;;;;;;;10.43;9.53;;;13.40;99.90;;;;;;5069223;28;20238;-78
2022/05/11 03:08:09;;;;;;;11.67;10.50;;;13.30;99.90;;;;;;5081289;28;20244;-77
2022/05/11 03:10:36;;;;;;;10.63;9.73;;;13.30;99.90;;;;;;5084570;28;20225;-81
2022/05/11 03:13:03;;;;;;;11.43;10.53;;;13.40;99.90;;;;;;5080595;28;20200;-81
2022/05/11 03:15:30;;;;;;;11.40;10.50;;;13.30;99.90;;;;;;5070978;28;20218;-77
2022/05/11 03:17:57;;;;;;;11.07;10.17;;;13.40;99.90;;;;;;5073656;28;20186;-79
2022/05/11 03:20:26;;;;;;;11.17;10.27;;;13.40;99.90;;;;;;5071836;28;20217;-78
2022/05/11 03:22:55;;;;;;;11.93;10.87;;;13.40;99.90;;;;;;5078219;28;20198;-79
2022/05/11 03:25:23;;;;;;;11.80;10.70;;;13.40;99.90;;;;;;5081511;28;20759;-80
2022/05/11 03:27:51;;;;;;;11.87;10.90;;;13.40;99.90;;;;;;5079539;28;20292;-79
2022/05/11 03:30:18;;;;;;;12.33;11.23;;;13.40;99.90;;;;;;5075108;28;20587;-80
2022/05/11 03:35:29;;;;;;;11.13;10.23;;;13.40;99.90;;;;;;5077803;28;20218;-78
2022/05/11 03:37:59;;;;;;;11.00;10.00;;;13.40;99.90;;;;;;5076800;28;20221;-79
2022/05/11 03:40:26;;;;;;;10.67;9.80;;;13.40;99.90;;;;;;5077580;28;20267;-78
2022/05/11 03:42:53;;;;;;;12.07;11.17;;;13.40;99.90;;;;;;5078142;28;20202;-79
2022/05/11 03:45:23;;;;;;;11.93;10.93;;;13.40;99.90;;;;;;5082971;28;20701;-77
2022/05/11 03:47:50;;;;;;;11.33;10.33;;;13.40;99.90;;;;;;5078596;28;20198;-78
2022/05/11 03:50:22;;;;;;;10.93;10.03;;;13.40;99.90;;;;;;5082171;28;20198;-79
2022/05/11 03:52:49;;;;;;;11.50;10.50;;;13.40;99.90;;;;;;5080996;28;20202;-77
2022/05/11 03:55:18;;;;;;;11.90;10.80;;;13.40;99.90;;;;;;5076852;28;20744;-78
2022/05/11 03:57:45;;;;;;;11.50;10.50;;;13.50;99.90;;;;;;5080443;28;20201;-77
2022/05/11 04:00:14;;;;;;;11.20;10.30;;;13.50;99.90;;;;;;5077861;28;20309;-77
2022/05/11 04:02:42;;;;;;;11.47;10.53;;;13.50;99.90;;;;;;5086313;28;20198;-78
2022/05/11 04:05:10;;;;;;;11.47;10.50;;;13.50;99.90;;;;;;5075392;28;20320;-78
2022/05/11 04:07:38;;;;;;;11.60;10.60;;;13.60;99.90;;;;;;5070522;28;20191;-77
2022/05/11 04:10:06;;;;;;;11.70;10.60;;;13.60;99.90;;;;;;5078734;28;20187;-77
2022/05/11 04:12:35;;;;;;;11.80;10.80;;;13.60;99.90;;;;;;5079297;28;20244;-77
2022/05/11 04:15:03;;;;;;;11.13;10.23;;;13.70;99.90;;;;;;5077856;28;20222;-77
2022/05/11 04:17:30;;;;;;;11.57;10.67;;;13.70;99.90;;;;;;5073782;28;20693;-78
2022/05/11 04:19:57;;;;;;;11.57;10.63;;;13.70;99.90;;;;;;5081808;28;20693;-77
2022/05/11 04:22:24;;;;;;;11.70;10.60;;;13.80;99.90;;;;;;5077333;28;20203;-77
2022/05/11 04:24:51;;;;;;;11.93;10.93;;;13.80;99.90;;;;;;5079624;28;20214;-77
2022/05/11 04:27:18;;;;;;;12.43;11.33;;;13.80;99.90;;;;;;5079635;28;20687;-77
2022/05/11 04:29:46;;;;;;;10.73;9.73;;;13.80;99.90;;;;;;5074878;28;20222;-77
2022/05/11 04:32:14;;;;;;;12.73;11.03;;;13.80;99.90;;;;;;5081161;28;20289;-78
2022/05/11 04:34:42;;;;;;;11.97;10.97;;;13.90;99.90;;;;;;5076633;28;20702;-78
2022/05/11 04:37:11;;;;;;;11.13;10.03;;;13.90;99.90;;;;;;5075349;28;20210;-77
2022/05/11 04:39:39;;;;;;;11.30;10.40;;;14.00;99.90;;;;;;5074049;28;20294;-77
2022/05/11 04:42:07;;;;;;;11.80;10.87;;;14.10;99.90;;;;;;5073675;28;20728;-77
2022/05/11 04:44:34;;;;;;;10.50;9.70;;;14.10;99.90;;;;;;5081324;28;20218;-77
2022/05/11 04:47:07;;;;;;;11.87;10.97;;;14.20;99.90;;;;;;5074625;28;20424;-78
2022/05/11 04:49:35;;;;;;;11.23;10.33;;;14.30;99.90;;;;;;5080666;28;20290;-78
2022/05/11 04:52:07;;;;;;;11.70;10.80;;;14.40;99.90;;;;;;5081556;28;20191;-78
2022/05/11 04:54:37;;;;;;;12.20;11.10;;;14.50;99.90;;;;;;5084123;28;20214;-78
2022/05/11 04:57:04;;;;;;;13.40;11.80;;;14.50;99.90;;;;;;5081649;28;20204;-76
2022/05/11 04:59:32;;;;;;;12.30;11.20;;;14.60;99.90;;;;;;5077218;28;20212;-77
2022/05/11 05:01:59;;;;;;;12.23;11.20;;;14.80;99.90;;;;;;5084415;28;20305;-77
2022/05/11 05:04:27;;;;;;;12.53;11.43;;;14.90;99.90;;;;;;5080397;28;20589;-77
2022/05/11 05:06:54;;;;;;;12.33;11.17;;;15.00;99.90;;;;;;5082478;28;20510;-78
2022/05/11 05:09:21;;;;;;;12.67;11.57;;;15.20;99.90;;;;;;5082976;28;20201;-77
2022/05/11 05:11:49;;;;;;;12.80;11.70;;;15.50;99.90;;;;;;5082373;28;20195;-77
2022/05/11 05:14:16;;;;;;;11.93;10.93;;;15.70;99.90;;;;;;5083688;28;20322;-78
2022/05/11 05:16:44;;;;;;;11.90;10.90;;;16.00;99.90;;;;;;5078704;28;20607;-77
2022/05/11 05:19:11;;;;;;;11.43;10.57;;;16.20;99.90;;;;;;5077163;28;20251;-78
2022/05/11 05:21:40;;;;;;;11.83;10.93;;;16.40;99.90;;;;;;5073236;28;20244;-77
2022/05/11 05:24:07;;;;;;;11.03;10.23;;;16.60;99.90;;;;;;5081403;28;20221;-79
2022/05/11 05:26:35;;;;;;;11.30;10.50;;;16.70;99.90;;;;;;5081467;28;20214;-77
2022/05/11 05:31:46;;;;;;;12.87;11.97;;;17.40;99.90;;;;;;5080759;28;20277;-77
2022/05/11 05:34:13;;;;;;;13.90;12.90;;;17.80;99.90;;;;;;5083675;28;20256;-77
2022/05/11 05:36:42;;;;;;;11.30;10.27;;;18.10;99.90;;;;;;5079526;28;20197;-77
2022/05/11 05:39:09;;;;;;;7.30;5.97;;;18.30;99.90;;;;;;5078302;28;20201;-77
2022/05/11 05:41:36;;;;;;;8.67;7.87;;;18.70;99.90;;;;;;5081279;28;20202;-79
2022/05/11 05:44:06;;;;;;;6.60;5.90;;;19.10;99.90;;;;;;5080747;28;20216;-78
2022/05/11 05:46:34;;;;;;;7.13;6.43;;;19.60;99.90;;;;;;5083986;28;20204;-77
2022/05/11 05:49:01;;;;;;;7.23;6.00;;;19.80;99.90;;;;;;5077854;28;20665;-77
2022/05/11 05:51:28;;;;;;;6.60;5.90;;;19.80;99.90;;;;;;5083889;28;20210;-77
2022/05/11 05:53:56;;;;;;;7.80;6.20;;;19.50;99.90;;;;;;5081885;28;20205;-79
2022/05/11 05:56:24;;;;;;;6.93;6.23;;;19.10;99.90;;;;;;5077338;28;20304;-77
2022/05/11 05:58:50;;;;;;;5.83;5.30;;;18.90;99.90;;;;;;5075931;28;20214;-77
2022/05/11 06:01:18;;;;;;;7.53;6.73;;;18.70;99.90;;;;;;5077653;28;20214;-78
2022/05/11 06:03:46;;;;;;;8.87;8.07;;;18.40;99.90;;;;;;5080657;28;20660;-78
2022/05/11 06:06:13;;;;;;;9.73;8.83;;;18.30;99.90;;;;;;5080587;28;20680;-79
2022/05/11 06:08:40;;;;;;;6.70;5.83;;;18.30;99.90;;;;;;5080517;28;20204;-79
2022/05/11 06:11:09;;;;;;;6.60;6.00;;;18.40;99.90;;;;;;5083444;28;20203;-77
2022/05/11 06:13:37;;;;;;;7.27;6.57;;;18.30;99.90;;;;;;5062576;28;20200;-78
2022/05/11 06:16:10;;;;;;;10.17;9.33;;;18.40;99.90;;;;;;5079292;28;20282;-78
2022/05/11 06:18:41;;;;;;;9.63;8.83;;;18.50;99.90;;;;;;5072177;28;20267;-78
2022/05/11 06:21:08;;;;;;;7.07;6.37;;;18.70;99.90;;;;;;5080806;28;20248;-77
2022/05/11 06:23:35;;;;;;;8.33;7.60;;;18.80;99.90;;;;;;5076504;28;20193;-79
2022/05/11 06:26:03;;;;;;;9.27;8.47;;;18.90;99.90;;;;;;5082772;28;20225;-77
2022/05/11 06:28:32;;;;;;;6.67;5.97;;;19.00;99.90;;;;;;5075955;28;20296;-77
2022/05/11 06:30:58;;;;;;;5.50;5.00;;;19.20;99.90;;;;;;5084465;28;20194;-78
2022/05/11 06:33:25;;;;;;;5.97;5.23;;;19.50;99.90;;;;;;5076949;28;20286;-78
2022/05/11 06:35:52;;;;;;;6.23;5.60;;;20.10;99.90;;;;;;5082480;28;20232;-78
2022/05/11 06:38:19;;;;;;;6.03;5.43;;;20.60;99.90;;;;;;5074113;28;20286;-77
2022/05/11 06:40:46;;;;;;;7.10;5.13;;;21.10;99.90;;;;;;5080969;28;20221;-79
2022/05/11 06:43:13;;;;;;;6.37;5.40;;;21.40;99.90;;;;;;5080018;28;20225;-78
2022/05/11 06:45:42;;;;;;;6.20;4.73;;;21.70;99.90;;;;;;5075517;28;20221;-78
2022/05/11 06:48:09;;;;;;;5.97;5.37;;;21.90;99.90;;;;;;5080987;28;20201;-78
2022/05/11 06:50:36;;;;;;;5.57;5.07;;;22.20;99.90;;;;;;5067604;28;20186;-78
2022/05/11 06:53:11;;;;;;;5.13;4.63;;;22.40;99.90;;;;;;5070961;28;20238;-78
2022/05/11 07:01:10;;;;;;;5.20;4.70;;;23.40;99.90;;;;;;5077838;28;20218;-78
2022/05/11 07:03:37;;;;;;;6.77;6.07;;;23.90;99.90;;;;;;5082588;28;20616;-78
2022/05/11 07:06:05;;;;;;;5.80;5.20;;;24.20;99.90;;;;;;5079674;28;20202;-79
2022/05/11 07:08:36;;;;;;;7.43;5.50;;;24.50;99.90;;;;;;5081254;28;20230;-78
2022/05/11 07:13:48;;;;;;;8.00;6.57;;;25.10;99.90;;;;;;5069801;28;20213;-78
2022/05/11 07:16:18;;;;;;;6.27;5.57;;;25.30;99.90;;;;;;5066574;28;20203;-78
2022/05/11 07:18:45;;;;;;;7.07;5.33;;;25.40;99.90;;;;;;5082507;28;20186;-78
2022/05/11 07:21:12;;;;;;;7.80;7.10;;;25.70;99.90;;;;;;5072239;28;20223;-79
2022/05/11 07:23:39;;;;;;;8.40;7.60;;;26.00;99.90;;;;;;5081086;28;20221;-79
2022/05/11 07:26:06;;;;;;;5.80;5.20;;;26.20;99.90;;;;;;5079202;28;20199;-79
2022/05/11 07:28:33;;;;;;;6.00;5.40;;;26.30;99.90;;;;;;5081147;28;20201;-78
2022/05/11 07:31:00;;;;;;;5.77;4.83;;;26.60;99.90;;;;;;5078466;28;20190;-79
2022/05/11 07:33:28;;;;;;;5.00;4.50;;;26.80;99.90;;;;;;5066534;28;20203;-79
2022/05/11 07:35:55;;;;;;;6.23;5.00;;;26.90;99.90;;;;;;5070266;28;20242;-79
2022/05/11 07:38:22;;;;;;;4.83;4.43;;;27.10;99.90;;;;;;5095399;28;20206;-79
2022/05/11 07:40:49;;;;;;;6.40;4.30;;;27.40;99.90;;;;;;5080402;28;20597;-79
2022/05/11 07:43:17;;;;;;;8.13;7.43;;;27.60;99.90;;;;;;5079581;28;20651;-80
2022/05/11 07:45:44;;;;;;;5.93;4.40;;;27.50;99.90;;;;;;5074787;28;20249;-78
2022/05/11 07:48:11;;;;;;;7.23;6.70;;;27.90;99.90;;;;;;5081190;28;20210;-79
2022/05/11 07:50:39;;;;;;;8.10;7.40;;;28.20;99.90;;;;;;5067685;28;20200;-78
2022/05/11 07:53:06;;;;;;;8.53;7.77;;;28.50;99.90;;;;;;5075971;28;20458;-78
2022/05/11 07:55:36;;;;;;;8.93;7.97;;;28.60;99.90;;;;;;5079487;28;20225;-78
2022/05/11 08:00:48;;;;;;;7.20;6.60;;;28.90;99.90;;;;;;5075528;28;20194;-78
2022/05/11 08:03:15;;;;;;;7.40;6.90;;;29.10;99.90;;;;;;5082150;28;20198;-80
2022/05/11 08:05:43;;;;;;;7.80;7.07;;;29.10;99.90;;;;;;5078597;28;20234;-77
2022/05/11 08:08:10;;;;;;;7.63;6.93;;;29.30;99.90;;;;;;5071598;28;20199;-77
2022/05/11 08:10:39;;;;;;;7.57;6.97;;;29.30;99.90;;;;;;5069920;28;20199;-77
2022/05/11 08:13:07;;;;;;;7.83;7.17;;;29.40;99.90;;;;;;5078494;28;20190;-76
2022/05/11 08:15:36;;;;;;;9.60;6.83;;;29.60;99.90;;;;;;5081489;28;20240;-77
2022/05/11 08:18:05;;;;;;;19.77;8.90;;;29.70;99.40;;;;;;5081111;28;20194;-77
2022/05/11 08:20:35;;;;;;;7.90;6.87;;;29.90;99.00;;;;;;5073609;28;20205;-78
2022/05/11 08:23:04;;;;;;;7.30;6.77;;;30.00;98.80;;;;;;5081996;28;20221;-76
2022/05/11 08:25:33;;;;;;;7.30;6.60;;;30.10;98.20;;;;;;5081362;28;20316;-78
2022/05/11 08:28:02;;;;;;;7.47;6.87;;;30.10;98.10;;;;;;5082058;28;20632;-77
2022/05/11 08:33:22;;;;;;;7.50;6.90;;;30.50;98.30;;;;;;5080118;28;20222;-77
2022/05/11 08:35:51;;;;;;;7.27;6.60;;;30.50;97.10;;;;;;5082804;28;20218;-77
2022/05/11 08:38:21;;;;;;;7.30;6.80;;;30.60;95.60;;;;;;5084158;28;20212;-77
2022/05/11 08:40:52;;;;;;;7.43;6.90;;;30.70;96.80;;;;;;5079873;28;20899;-76
2022/05/11 08:43:20;;;;;;;7.30;6.80;;;30.80;95.90;;;;;;5070672;28;20207;-77
2022/05/11 08:45:55;;;;;;;17.00;14.13;;;30.80;96.00;;;;;;5075626;28;20280;-77
2022/05/11 08:48:33;;;;;;;9.23;8.33;;;30.90;96.10;;;;;;5077875;28;20815;-77
2022/05/11 08:51:03;;;;;;;7.67;7.07;;;31.10;95.30;;;;;;5078007;28;20203;-77
2022/05/11 08:53:38;;;;;;;7.83;7.23;;;31.10;95.20;;;;;;5083726;28;20289;-77
2022/05/11 08:56:13;;;;;;;7.63;6.97;;;31.10;95.10;;;;;;5077683;28;20217;-77
2022/05/11 08:58:48;;;;;;;8.33;6.90;;;31.20;94.90;;;;;;5080365;28;20191;-77
2022/05/11 09:01:20;;;;;;;7.43;6.73;;;31.40;96.00;;;;;;5082407;28;20282;-78
2022/05/11 09:03:52;;;;;;;7.47;6.87;;;31.50;94.70;;;;;;5081841;28;20289;-77
2022/05/11 09:06:23;;;;;;;7.50;6.90;;;31.40;95.10;;;;;;5089714;28;20219;-77
2022/05/11 09:08:53;;;;;;;7.97;7.47;;;31.60;96.00;;;;;;5090338;28;20209;-76
2022/05/11 09:11:26;;;;;;;8.20;7.50;;;31.80;94.50;;;;;;5076443;28;20202;-78
2022/05/11 09:13:53;;;;;;;8.25;7.55;;;31.90;93.80;;;;;;5082113;28;20194;-77
2022/05/11 09:16:23;;;;;;;9.47;7.13;;;32.10;92.90;;;;;;5082552;28;20201;-78
2022/05/11 09:18:50;;;;;;;7.57;6.97;;;32.00;92.00;;;;;;5075862;28;20191;-77
2022/05/11 09:21:31;;;;;;;8.18;7.30;;;32.00;92.40;;;;;;5083163;28;20583;-78
2022/05/11 09:24:21;;;;;;;7.97;7.35;;;32.00;92.40;;;;;;5080794;28;20272;-77
2022/05/11 09:27:02;;;;;;;8.07;7.37;;;31.80;92.10;;;;;;5072707;28;20190;-77
2022/05/11 09:29:33;;;;;;;8.00;7.30;;;31.90;91.90;;;;;;5068683;28;20203;-77
2022/05/11 09:32:23;;;;;;;8.27;7.47;;;31.90;92.00;;;;;;5084443;28;20190;-77
2022/05/11 09:34:50;;;;;;;7.77;7.17;;;31.90;91.40;;;;;;5068011;28;20262;-78
2022/05/11 09:37:29;;;;;;;7.97;7.33;;;32.00;92.00;;;;;;5081884;28;20199;-77
2022/05/11 09:40:10;;;;;;;8.23;7.43;;;32.00;91.70;;;;;;5075672;28;20190;-78
2022/05/11 09:42:48;;;;;;;10.63;7.43;;;32.00;92.50;;;;;;5082029;28;20221;-76
2022/05/11 09:45:36;;;;;;;7.82;7.13;;;32.00;90.90;;;;;;5084121;28;20720;-78
2022/05/11 09:48:12;;;;;;;8.67;7.73;;;32.10;91.40;;;;;;5082105;28;20193;-76
2022/05/11 09:50:40;;;;;;;7.28;6.78;;;32.20;91.10;;;;;;5070575;28;20281;-78
2022/05/11 09:53:21;;;;;;;7.57;6.97;;;32.30;91.20;;;;;;5085542;28;20190;-77
2022/05/11 09:55:50;;;;;;;8.32;7.60;;;32.50;91.60;;;;;;5076836;28;20214;-77
2022/05/11 09:58:29;;;;;;;7.88;7.38;;;32.60;90.30;;;;;;5080777;28;20205;-77
2022/05/11 10:01:11;;;;;;;8.40;7.60;;;32.60;90.90;;;;;;5081685;28;20194;-77
2022/05/11 10:03:43;;;;;;;7.80;7.30;;;32.60;91.00;;;;;;5073964;28;20586;-77
2022/05/11 10:06:12;;;;;;;8.10;7.50;;;32.60;90.60;;;;;;5081921;28;20217;-78
2022/05/11 10:08:43;;;;;;;8.50;7.90;;;32.70;91.50;;;;;;5080373;28;20540;-78
2022/05/11 10:11:18;;;;;;;8.68;7.97;;;32.60;90.40;;;;;;5082971;28;20202;-77
2022/05/11 10:13:51;;;;;;;10.10;9.30;;;32.30;90.30;;;;;;5072300;28;20269;-77
2022/05/11 10:22:19;;;;;;;9.33;8.67;;;32.00;90.00;;;;;;5036004;28;20259;-77
2022/05/11 10:25:07;;;;;;;9.57;8.70;;;31.80;88.60;;;;;;5071466;28;20209;-77
2022/05/11 10:27:43;;;;;;;9.20;8.40;;;31.40;90.50;;;;;;5067205;28;20212;-77
2022/05/11 10:30:20;;;;;;;9.43;8.73;;;31.10;90.20;;;;;;5083544;28;20226;-77
2022/05/11 10:33:12;;;;;;;9.43;8.73;;;31.10;90.30;;;;;;5073376;28;20268;-77
2022/05/11 10:35:47;;;;;;;9.27;8.57;;;30.60;90.60;;;;;;5072598;28;20222;-77
2022/05/11 10:38:26;;;;;;;4.30;3.90;;;30.20;91.70;;;;;;5081740;28;20198;-78
2022/05/11 10:41:02;;;;;;;9.97;9.00;;;30.30;91.60;;;;;;5081701;28;20199;-77
2022/05/11 10:43:47;;;;;;;4.80;4.40;;;30.10;90.80;;;;;;5084291;28;20209;-78
2022/05/11 10:46:18;;;;;;;4.50;4.10;;;29.80;91.90;;;;;;5080181;28;20223;-79
2022/05/11 10:48:56;;;;;;;6.07;5.43;;;29.60;92.30;;;;;;5081769;28;20194;-79
2022/05/11 10:51:34;;;;;;;4.73;4.33;;;29.70;92.70;;;;;;5081849;28;20741;-79
2022/05/11 10:54:09;;;;;;;4.50;4.10;;;29.90;93.30;;;;;;5080140;28;20213;-78
2022/05/11 10:56:53;;;;;;;5.00;4.13;;;30.20;92.20;;;;;;5076453;28;20228;-78
2022/05/11 10:59:50;;;;;;;4.20;3.80;;;30.20;92.00;;;;;;5082803;28;20545;-78
2022/05/11 11:02:46;;;;;;;6.27;5.57;;;30.30;92.00;;;;;;5083232;28;20214;-80
2022/05/11 11:05:22;;;;;;;5.00;4.50;;;30.20;92.00;;;;;;5081149;28;20225;-80
2022/05/11 11:08:01;;;;;;;4.67;4.20;;;30.30;91.40;;;;;;5079433;28;20563;-80
2022/05/11 11:10:33;;;;;;;5.10;4.60;;;30.40;90.90;;;;;;5076368;28;20198;-79
2022/05/11 11:13:25;;;;;;;4.80;4.40;;;30.30;91.60;;;;;;5079668;28;20187;-78
2022/05/11 11:15:57;;;;;;;4.53;4.03;;;30.40;91.90;;;;;;5074533;28;20214;-78
2022/05/11 11:18:32;;;;;;;4.63;4.23;;;30.30;91.70;;;;;;5082192;28;20685;-79
2022/05/11 11:21:02;;;;;;;3.97;3.67;;;30.20;91.80;;;;;;5080629;28;20204;-78
2022/05/11 11:23:35;;;;;;;5.47;4.97;;;30.10;91.70;;;;;;5081034;28;20221;-79
2022/05/11 11:26:05;;;;;;;5.33;4.83;;;30.10;92.10;;;;;;5079412;28;20271;-79
2022/05/11 11:28:34;;;;;;;5.30;4.80;;;30.10;90.70;;;;;;5080989;28;20281;-80
2022/05/11 11:31:26;;;;;;;8.23;5.57;;;30.00;91.80;;;;;;5082710;28;20225;-79
2022/05/11 11:34:19;;;;;;;4.70;4.20;;;30.10;92.40;;;;;;5062690;28;20194;-78
2022/05/11 11:36:46;;;;;;;8.30;6.93;;;30.00;92.00;;;;;;5075194;28;20195;-78
2022/05/11 11:39:34;;;;;;;7.77;7.03;;;29.80;92.40;;;;;;5089519;28;20552;-79
2022/05/11 11:42:05;;;;;;;8.00;7.30;;;29.70;91.90;;;;;;5087380;28;20557;-79
2022/05/11 11:44:39;;;;;;;7.30;6.70;;;29.70;92.60;;;;;;5080991;28;20607;-80
2022/05/11 11:47:38;;;;;;;7.97;7.37;;;29.70;92.20;;;;;;5084016;28;20673;-78
2022/05/11 11:50:12;;;;;;;8.83;8.03;;;29.60;91.90;;;;;;5078698;28;20193;-79
2022/05/11 11:52:43;;;;;;;8.13;7.47;;;29.50;91.60;;;;;;5071144;28;20192;-80
2022/05/11 11:55:25;;;;;;;4.63;4.17;;;29.30;92.00;;;;;;5079091;28;20218;-79
2022/05/11 11:57:56;;;;;;;5.90;5.40;;;29.00;91.80;;;;;;5073566;28;20274;-79
2022/05/11 12:00:59;;;;;;;7.53;6.93;;;28.80;92.30;;;;;;5081269;28;20675;-77
2022/05/11 12:03:34;;;;;;;7.23;6.73;;;28.60;92.80;;;;;;5075566;28;20225;-76
2022/05/11 12:17:05;;;;;;;4.23;3.90;;;29.30;91.80;;;;;;5075284;28;20187;-77
2022/05/11 12:19:34;;;;;;;4.50;4.10;;;29.30;92.00;;;;;;5081645;28;20206;-77
2022/05/11 12:22:12;;;;;;;5.23;4.30;;;29.20;91.70;;;;;;5079311;28;20205;-76
2022/05/11 12:24:41;;;;;;;4.13;3.83;;;29.00;91.20;;;;;;5068268;28;20260;-77
2022/05/11 12:27:12;;;;;;;9.50;4.40;;;29.00;91.50;;;;;;5075417;28;20222;-76
2022/05/11 12:29:59;;;;;;;5.43;5.03;;;29.00;90.70;;;;;;5072020;28;20189;-76
2022/05/11 12:32:29;;;;;;;5.73;3.70;;;28.80;90.80;;;;;;5077418;28;20194;-77
2022/05/11 12:34:57;;;;;;;7.97;7.47;;;28.70;92.00;;;;;;5080257;28;20333;-76
2022/05/11 12:37:26;;;;;;;11.40;7.90;;;28.50;91.60;;;;;;5081056;28;20332;-77
2022/05/11 12:40:00;;;;;;;4.97;4.47;;;28.30;92.10;;;;;;5072680;28;20294;-77
2022/05/11 12:42:32;;;;;;;8.23;7.63;;;28.20;92.00;;;;;;5080881;28;20210;-77
2022/05/11 12:45:01;;;;;;;7.73;7.13;;;28.40;92.40;;;;;;5079710;28;20214;-78
2022/05/11 12:47:28;;;;;;;7.30;6.80;;;28.60;92.00;;;;;;5076619;28;20194;-79
2022/05/11 12:49:55;;;;;;;8.13;7.43;;;28.80;91.40;;;;;;5079187;28;20198;-78
2022/05/11 12:52:26;;;;;;;7.63;7.03;;;29.00;91.90;;;;;;5080924;28;20667;-79
2022/05/11 12:55:00;;;;;;;7.80;7.20;;;29.00;90.70;;;;;;5081267;28;20250;-79
2022/05/11 12:57:36;;;;;;;7.87;7.27;;;28.90;91.30;;;;;;5081055;28;20205;-78
2022/05/11 13:00:12;;;;;;;8.10;7.50;;;28.90;90.90;;;;;;5079731;28;20196;-79
2022/05/11 13:02:40;;;;;;;8.27;7.67;;;28.80;91.20;;;;;;5068555;28;20210;-79
2022/05/11 13:05:10;;;;;;;8.33;7.60;;;28.60;91.60;;;;;;5075681;28;20225;-77
2022/05/11 13:07:41;;;;;;;7.03;6.43;;;28.50;91.50;;;;;;5070181;28;20202;-78
2022/05/11 13:10:14;;;;;;;6.73;5.47;;;28.30;91.20;;;;;;5079892;28;20202;-79
2022/05/11 13:12:41;;;;;;;9.00;4.53;;;28.30;91.40;;;;;;5075292;28;20185;-78
2022/05/11 13:15:11;;;;;;;7.70;7.00;;;28.40;91.50;;;;;;5082837;28;20597;-79
2022/05/11 13:17:43;;;;;;;5.50;3.73;;;28.50;91.00;;;;;;5079216;28;20635;-78
2022/05/11 13:20:22;;;;;;;9.77;6.83;;;28.70;90.40;;;;;;5087083;28;20209;-79
2022/05/11 13:22:50;;;;;;;8.30;7.70;;;28.70;90.40;;;;;;5074618;28;20332;-78
2022/05/11 13:25:41;;;;;;;7.30;6.80;;;28.70;90.20;;;;;;5080427;28;20214;-78
2022/05/11 13:28:14;;;;;;;7.47;6.87;;;28.70;90.80;;;;;;5080145;28;20202;-79
2022/05/11 13:30:45;;;;;;;7.93;7.33;;;28.60;91.20;;;;;;5074704;28;20276;-79
2022/05/11 13:33:41;;;;;;;7.73;7.03;;;28.60;91.20;;;;;;5081592;28;20285;-79
2022/05/11 13:36:15;;;;;;;8.03;7.43;;;28.40;90.90;;;;;;5081394;28;20570;-78
2022/05/11 13:39:11;;;;;;;3.63;3.33;;;28.40;91.20;;;;;;5075053;28;20686;-78
2022/05/11 13:41:42;;;;;;;5.80;5.40;;;28.30;91.70;;;;;;5067661;28;20202;-78
2022/05/11 13:44:24;;;;;;;4.37;3.40;;;28.30;91.10;;;;;;5082266;28;20686;-79